Time;durP1;ratioP1;P1;durP2;ratioP2;P2;SDS_P1;SDS_P2;PMS_P1;PMS_P2;Temp;Humidity;BMP_temperature;BMP_pressure;BME280_temperature;BME280_humidity;BME280_pressure;Samples;Min_cycle;Max_cycle;Signal;HPM_P1;HPM_P2
2023/03/03 00:01:40;;;;;;;;;;;17.10;61.80;;;;;;5039654;28;1346;-68
2023/03/03 00:04:06;;;;;;;;;;;17.10;61.80;;;;;;5037433;28;860;-68
2023/03/03 00:06:31;;;;;;;;;;;17.10;61.70;;;;;;5040820;28;906;-68
2023/03/03 00:08:57;;;;;;;;;;;17.10;61.80;;;;;;5041862;28;2005;-67
2023/03/03 00:11:22;;;;;;;;;;;17.10;61.80;;;;;;5039712;28;1345;-67
2023/03/03 00:13:48;;;;;;;;;;;17.10;61.80;;;;;;5039006;28;820;-67
2023/03/03 00:16:21;;;;;;;;;;;17.10;61.80;;;;;;5038898;28;816;-67
2023/03/03 00:18:46;;;;;;;;;;;17.10;61.80;;;;;;5039818;28;907;-67
2023/03/03 00:21:19;;;;;;;;;;;17.10;61.80;;;;;;5039018;28;1301;-67
2023/03/03 00:23:44;;;;;;;;;;;17.10;61.80;;;;;;5040418;28;1261;-67
2023/03/03 00:26:32;;;;;;;;;;;17.10;61.80;;;;;;5037828;28;855;-67
2023/03/03 00:28:58;;;;;;;;;;;17.00;61.70;;;;;;5069080;28;1898;-67
2023/03/03 00:31:33;;;;;;;;;;;17.10;61.80;;;;;;5070211;28;1285;-67
2023/03/03 00:34:18;;;;;;;;;;;17.10;61.70;;;;;;5040126;28;973;-68
2023/03/03 00:36:44;;;;;;;;;;;17.10;61.80;;;;;;5037441;28;1356;-67
2023/03/03 00:39:24;;;;;;;;;;;17.10;61.80;;;;;;5069548;28;882;-68
2023/03/03 00:41:50;;;;;;;;;;;17.10;61.80;;;;;;5040795;28;1330;-68
2023/03/03 00:44:31;;;;;;;;;;;17.00;61.80;;;;;;5038892;28;1365;-68
2023/03/03 00:46:56;;;;;;;;;;;17.10;61.80;;;;;;5037698;28;983;-68
2023/03/03 00:49:23;;;;;;;;;;;17.10;61.80;;;;;;5071066;28;1959;-68
2023/03/03 00:51:49;;;;;;;;;;;17.10;61.80;;;;;;5039394;28;1337;-67
2023/03/03 00:54:14;;;;;;;;;;;17.10;61.80;;;;;;5039272;28;801;-68
2023/03/03 00:56:40;;;;;;;;;;;17.10;61.80;;;;;;5041299;28;1047;-68
2023/03/03 00:59:06;;;;;;;;;;;17.10;61.80;;;;;;5040441;28;1301;-68
2023/03/03 01:01:31;;;;;;;;;;;17.10;61.80;;;;;;5037133;28;1269;-68
2023/03/03 01:03:57;;;;;;;;;;;17.10;61.80;;;;;;5038238;28;935;-68
2023/03/03 01:06:23;;;;;;;;;;;17.10;61.80;;;;;;5039309;28;931;-68
2023/03/03 01:08:48;;;;;;;;;;;17.00;62.50;;;;;;5054707;28;1959;-68
2023/03/03 01:11:23;;;;;;;;;;;17.00;61.70;;;;;;5041265;28;1376;-67
2023/03/03 01:13:48;;;;;;;;;;;17.10;61.80;;;;;;5069676;28;820;-67
2023/03/03 01:16:14;;;;;;;;;;;17.10;61.80;;;;;;5036358;28;966;-68
2023/03/03 01:18:40;;;;;;;;;;;17.10;61.80;;;;;;5036600;28;849;-68
2023/03/03 01:21:06;;;;;;;;;;;17.10;61.80;;;;;;5038342;28;1256;-68
2023/03/03 01:23:32;;;;;;;;;;;17.10;61.80;;;;;;5066961;28;1294;-68
2023/03/03 01:25:57;;;;;;;;;;;17.10;62.60;;;;;;5042542;28;858;-68
2023/03/03 01:28:23;;;;;;;;;;;17.00;61.70;;;;;;5072190;28;1965;-68
2023/03/03 01:30:49;;;;;;;;;;;17.00;61.70;;;;;;5041743;28;857;-68
2023/03/03 01:33:15;;;;;;;;;;;17.10;61.80;;;;;;5041672;28;1246;-68
2023/03/03 01:35:46;;;;;;;;;;;17.00;61.80;;;;;;5044591;28;856;-68
2023/03/03 01:38:13;;;;;;;;;;;17.10;61.80;;;;;;5072863;28;850;-67
2023/03/03 01:40:38;;;;;;;;;;;17.10;61.80;;;;;;5042187;28;872;-68
2023/03/03 01:43:03;;;;;;;;;;;17.00;61.80;;;;;;5076507;28;1338;-68
2023/03/03 01:45:30;;;;;;;;;;;17.10;61.80;;;;;;5038426;28;882;-68
2023/03/03 01:47:57;;;;;;;;;;;17.00;61.80;;;;;;5040332;28;1910;-67
2023/03/03 01:50:27;;;;;;;;;;;17.00;61.70;;;;;;5076762;28;903;-68
2023/03/03 01:52:53;;;;;;;;;;;17.00;61.80;;;;;;5076215;28;1259;-67
2023/03/03 01:55:22;;;;;;;;;;;17.10;61.80;;;;;;5047650;28;863;-67
2023/03/03 01:57:48;;;;;;;;;;;17.00;61.80;;;;;;5076835;28;822;-67
2023/03/03 02:00:14;;;;;;;;;;;17.00;61.80;;;;;;5074009;28;1105;-68
2023/03/03 02:02:40;;;;;;;;;;;17.00;61.80;;;;;;5041377;28;1263;-68
2023/03/03 02:05:06;;;;;;;;;;;17.00;61.80;;;;;;5077689;28;882;-67
2023/03/03 02:07:31;;;;;;;;;;;17.00;61.80;;;;;;5075480;28;1967;-67
2023/03/03 02:10:03;;;;;;;;;;;17.00;61.80;;;;;;5072296;28;827;-67
2023/03/03 02:12:51;;;;;;;;;;;17.00;61.80;;;;;;5043436;28;1261;-67
2023/03/03 02:15:34;;;;;;;;;;;17.00;61.80;;;;;;5038931;28;1012;-68
2023/03/03 02:18:20;;;;;;;;;;;17.00;61.80;;;;;;5074187;28;875;-68
2023/03/03 02:20:54;;;;;;;;;;;17.00;61.80;;;;;;5039796;28;1204;-68
2023/03/03 02:23:22;;;;;;;;;;;17.00;61.80;;;;;;5040586;28;1401;-68
2023/03/03 02:25:51;;;;;;;;;;;17.00;61.80;;;;;;5042303;28;824;-68
2023/03/03 02:28:16;;;;;;;;;;;17.00;61.80;;;;;;5075442;28;1910;-68
2023/03/03 02:30:42;;;;;;;;;;;17.00;61.90;;;;;;5076054;28;891;-68
2023/03/03 02:33:07;;;;;;;;;;;17.00;61.80;;;;;;5071973;28;1265;-67
2023/03/03 02:35:34;;;;;;;;;;;17.00;61.80;;;;;;5040682;28;944;-67
2023/03/03 02:38:05;;;;;;;;;;;17.00;61.80;;;;;;5038080;28;1058;-67
2023/03/03 02:40:32;;;;;;;;;;;17.00;61.80;;;;;;5043031;28;959;-67
2023/03/03 02:42:57;;;;;;;;;;;17.00;61.80;;;;;;5073509;28;1378;-69
2023/03/03 02:45:23;;;;;;;;;;;17.00;61.90;;;;;;5056685;28;1626;-68
2023/03/03 02:47:49;;;;;;;;;;;17.00;61.80;;;;;;5039799;28;1902;-68
2023/03/03 02:50:15;;;;;;;;;;;17.00;61.80;;;;;;5043770;28;1235;-67
2023/03/03 02:52:40;;;;;;;;;;;17.00;61.80;;;;;;5044049;28;1383;-68
2023/03/03 02:55:06;;;;;;;;;;;17.00;61.80;;;;;;5044376;28;1323;-68
2023/03/03 02:57:31;;;;;;;;;;;17.00;61.90;;;;;;5044525;28;1104;-68
2023/03/03 02:59:57;;;;;;;;;;;17.00;61.90;;;;;;5044343;28;1013;-68
2023/03/03 03:02:22;;;;;;;;;;;17.00;62.70;;;;;;5044999;28;1412;-68
2023/03/03 03:04:48;;;;;;;;;;;17.00;61.90;;;;;;5041327;28;1323;-68
2023/03/03 03:07:13;;;;;;;;;;;17.00;61.90;;;;;;5040504;28;1429;-68
2023/03/03 03:09:39;;;;;;;;;;;17.00;61.90;;;;;;5054811;28;1909;-69
2023/03/03 03:12:05;;;;;;;;;;;17.00;61.90;;;;;;5070429;28;1437;-67
2023/03/03 03:14:30;;;;;;;;;;;17.00;61.90;;;;;;5039787;28;914;-67
2023/03/03 03:16:56;;;;;;;;;;;17.00;61.90;;;;;;5042172;28;832;-68
2023/03/03 03:19:21;;;;;;;;;;;17.00;61.90;;;;;;5039794;28;888;-68
2023/03/03 03:21:46;;;;;;;;;;;17.00;61.90;;;;;;5039288;28;1279;-67
2023/03/03 03:24:12;;;;;;;;;;;17.00;61.90;;;;;;5044160;28;876;-68
2023/03/03 03:26:37;;;;;;;;;;;17.00;62.00;;;;;;5039585;28;883;-67
2023/03/03 03:29:03;;;;;;;;;;;17.00;61.90;;;;;;5038449;28;1965;-67
2023/03/03 03:31:28;;;;;;;;;;;17.00;61.90;;;;;;5071299;28;1521;-67
2023/03/03 03:33:54;;;;;;;;;;;17.00;61.90;;;;;;5039366;28;1023;-67
2023/03/03 03:36:19;;;;;;;;;;;17.00;61.90;;;;;;5038571;28;1566;-67
2023/03/03 03:38:45;;;;;;;;;;;17.00;61.90;;;;;;5040046;28;1454;-67
2023/03/03 03:41:10;;;;;;;;;;;17.00;61.90;;;;;;5040984;28;1317;-67
2023/03/03 03:43:36;;;;;;;;;;;17.00;61.90;;;;;;5047972;28;1107;-68
2023/03/03 03:46:01;;;;;;;;;;;17.00;61.90;;;;;;5040893;28;927;-67
2023/03/03 03:48:26;;;;;;;;;;;17.00;61.90;;;;;;5071199;28;1913;-67
2023/03/03 03:50:52;;;;;;;;;;;17.00;61.90;;;;;;5039739;28;1406;-67
2023/03/03 03:53:18;;;;;;;;;;;17.00;62.00;;;;;;5039681;28;880;-67
2023/03/03 03:55:43;;;;;;;;;;;17.00;61.90;;;;;;5070152;28;875;-67
2023/03/03 03:58:16;;;;;;;;;;;17.00;61.90;;;;;;5069993;28;958;-67
2023/03/03 04:00:41;;;;;;;;;;;17.00;61.90;;;;;;5069715;28;879;-67
2023/03/03 04:03:07;;;;;;;;;;;17.00;62.00;;;;;;5037615;28;1355;-67
2023/03/03 04:05:33;;;;;;;;;;;17.00;62.00;;;;;;5039397;28;830;-67
2023/03/03 04:07:58;;;;;;;;;;;17.00;62.00;;;;;;5038047;28;1894;-67
2023/03/03 04:10:24;;;;;;;;;;;17.00;62.00;;;;;;5038975;28;1390;-67
2023/03/03 04:12:49;;;;;;;;;;;17.00;62.00;;;;;;5039987;28;1337;-67
2023/03/03 04:15:15;;;;;;;;;;;17.00;62.00;;;;;;5037381;28;867;-67
2023/03/03 04:17:40;;;;;;;;;;;17.00;62.00;;;;;;5039155;28;884;-67
2023/03/03 04:20:06;;;;;;;;;;;17.00;62.00;;;;;;5037873;28;1046;-67
2023/03/03 04:22:32;;;;;;;;;;;16.90;61.90;;;;;;5072413;28;1364;-67
2023/03/03 04:24:58;;;;;;;;;;;16.90;61.90;;;;;;5069247;28;948;-67
2023/03/03 04:27:24;;;;;;;;;;;16.90;61.90;;;;;;5040373;28;810;-67
2023/03/03 04:29:49;;;;;;;;;;;16.90;61.90;;;;;;5070398;28;1955;-67
2023/03/03 04:32:17;;;;;;;;;;;17.00;62.00;;;;;;5039167;28;1252;-67
2023/03/03 04:34:43;;;;;;;;;;;16.90;61.90;;;;;;5041458;28;832;-67
2023/03/03 04:37:08;;;;;;;;;;;16.90;61.90;;;;;;5072589;28;1477;-67
2023/03/03 04:39:33;;;;;;;;;;;16.90;61.90;;;;;;5041507;28;884;-68
2023/03/03 04:41:59;;;;;;;;;;;17.00;62.00;;;;;;5040080;28;1261;-67
2023/03/03 04:44:24;;;;;;;;;;;16.90;61.90;;;;;;5040765;28;847;-67
2023/03/03 04:46:50;;;;;;;;;;;16.90;61.90;;;;;;5040353;28;1597;-67
2023/03/03 04:49:15;;;;;;;;;;;17.00;62.00;;;;;;5037652;28;1898;-68
2023/03/03 04:51:41;;;;;;;;;;;16.90;61.90;;;;;;5036762;28;1366;-69
2023/03/03 04:54:06;;;;;;;;;;;16.90;62.00;;;;;;5041126;28;800;-67
2023/03/03 04:56:32;;;;;;;;;;;16.90;62.00;;;;;;5035799;28;912;-67
2023/03/03 04:58:57;;;;;;;;;;;16.90;62.00;;;;;;5037342;28;999;-67
2023/03/03 05:01:23;;;;;;;;;;;16.90;62.00;;;;;;5072477;28;1283;-66
2023/03/03 05:03:48;;;;;;;;;;;16.90;62.00;;;;;;5037803;28;1149;-68
2023/03/03 05:06:14;;;;;;;;;;;17.00;62.00;;;;;;5037115;28;1158;-69
2023/03/03 05:08:41;;;;;;;;;;;16.90;62.00;;;;;;5038061;28;1910;-69
2023/03/03 05:11:07;;;;;;;;;;;16.90;62.00;;;;;;5042994;28;1362;-69
2023/03/03 05:13:32;;;;;;;;;;;16.90;62.00;;;;;;5037623;28;871;-69
2023/03/03 05:15:58;;;;;;;;;;;16.90;62.00;;;;;;5040584;28;839;-69
2023/03/03 05:18:23;;;;;;;;;;;16.90;61.90;;;;;;5038367;28;895;-68
2023/03/03 05:20:49;;;;;;;;;;;16.90;61.90;;;;;;5040485;28;904;-68
2023/03/03 05:23:15;;;;;;;;;;;17.00;61.90;;;;;;5070933;28;1224;-69
2023/03/03 05:25:41;;;;;;;;;;;17.00;61.80;;;;;;5038972;28;1061;-69
2023/03/03 05:28:07;;;;;;;;;;;17.00;61.70;;;;;;5035166;28;1960;-68
2023/03/03 05:30:32;;;;;;;;;;;17.10;61.60;;;;;;5041420;28;888;-68
2023/03/03 05:32:58;;;;;;;;;;;17.10;61.50;;;;;;5073241;28;1256;-68
2023/03/03 05:35:24;;;;;;;;;;;17.10;61.40;;;;;;5039675;28;874;-68
2023/03/03 05:37:49;;;;;;;;;;;17.20;61.30;;;;;;5037280;28;1340;-68
2023/03/03 05:40:15;;;;;;;;;;;17.20;61.20;;;;;;5036603;28;924;-68
2023/03/03 05:42:40;;;;;;;;;;;17.20;61.10;;;;;;5037989;28;1238;-68
2023/03/03 05:45:06;;;;;;;;;;;17.20;61.00;;;;;;5039903;28;820;-68
2023/03/03 05:47:32;;;;;;;;;;;17.20;60.90;;;;;;5038738;28;837;-68
2023/03/03 05:49:57;;;;;;;;;;;17.30;60.80;;;;;;5033121;28;817;-68
2023/03/03 05:52:25;;;;;;;;;;;17.30;60.70;;;;;;5040446;28;1306;-68
2023/03/03 05:54:51;;;;;;;;;;;17.30;60.70;;;;;;5040433;28;981;-68
2023/03/03 05:57:16;;;;;;;;;;;17.30;60.60;;;;;;5036856;28;857;-68
2023/03/03 05:59:42;;;;;;;;;;;17.30;61.30;;;;;;5036450;28;871;-68
2023/03/03 06:02:07;;;;;;;;;;;17.30;60.50;;;;;;5037642;28;1421;-68
2023/03/03 06:04:33;;;;;;;;;;;17.40;60.50;;;;;;5037280;28;857;-68
2023/03/03 06:06:58;;;;;;;;;;;17.40;60.50;;;;;;5035506;28;956;-69
2023/03/03 06:09:25;;;;;;;;;;;17.40;60.40;;;;;;5038511;28;1927;-68
2023/03/03 06:11:52;;;;;;;;;;;17.40;60.40;;;;;;5040910;28;1348;-68
2023/03/03 06:14:21;;;;;;;;;;;17.40;60.40;;;;;;5071222;28;898;-68
2023/03/03 06:16:47;;;;;;;;;;;17.40;60.30;;;;;;5069558;28;1813;-70
2023/03/03 06:19:13;;;;;;;;;;;17.40;60.30;;;;;;5041022;28;1934;-70
2023/03/03 06:21:38;;;;;;;;;;;17.40;60.30;;;;;;5074433;28;1412;-70
2023/03/03 06:24:04;;;;;;;;;;;17.40;60.20;;;;;;5040457;28;1273;-69
2023/03/03 06:26:30;;;;;;;;;;;17.50;60.30;;;;;;5074844;28;828;-67
2023/03/03 06:28:55;;;;;;;;;;;17.40;60.20;;;;;;5069513;28;1901;-68
2023/03/03 06:31:21;;;;;;;;;;;17.40;60.20;;;;;;5039752;28;1259;-68
2023/03/03 06:33:46;;;;;;;;;;;17.40;60.20;;;;;;5040084;28;959;-68
2023/03/03 06:36:12;;;;;;;;;;;17.40;60.20;;;;;;5072190;28;1754;-67
2023/03/03 06:38:37;;;;;;;;;;;17.40;60.20;;;;;;5041491;28;1454;-68
2023/03/03 06:41:06;;;;;;;;;;;17.40;60.20;;;;;;5040476;28;1357;-68
2023/03/03 06:43:32;;;;;;;;;;;17.40;60.20;;;;;;5040681;28;1025;-69
2023/03/03 06:45:57;;;;;;;;;;;17.40;60.20;;;;;;5039191;28;828;-69
2023/03/03 06:48:23;;;;;;;;;;;17.40;60.20;;;;;;5043101;28;1910;-69
2023/03/03 06:50:48;;;;;;;;;;;17.40;60.30;;;;;;5042763;28;939;-69
2023/03/03 06:53:15;;;;;;;;;;;17.40;60.30;;;;;;5042316;28;1935;-68
2023/03/03 06:55:43;;;;;;;;;;;17.40;60.30;;;;;;5077965;28;1140;-67
2023/03/03 06:58:15;;;;;;;;;;;17.40;60.30;;;;;;5045558;28;1241;-68
2023/03/03 07:00:42;;;;;;;;;;;17.40;60.40;;;;;;5042957;28;914;-67
2023/03/03 07:03:13;;;;;;;;;;;17.40;60.40;;;;;;5071651;28;1288;-68
2023/03/03 07:05:38;;;;;;;;;;;17.30;60.40;;;;;;5039902;28;1272;-67
2023/03/03 07:08:24;;;;;;;;;;;17.30;60.40;;;;;;5074817;28;2100;-67
2023/03/03 07:10:50;;;;;;;;;;;17.30;60.40;;;;;;5043085;28;1098;-67
2023/03/03 07:13:17;;;;;;;;;;;17.40;60.50;;;;;;5058835;28;1309;-67
2023/03/03 07:15:42;;;;;;;;;;;17.30;60.50;;;;;;5042314;28;803;-68
2023/03/03 07:18:26;;;;;;;;;;;17.30;60.60;;;;;;5039766;28;895;-67
2023/03/03 07:20:52;;;;;;;;;;;17.30;60.50;;;;;;5039169;28;1255;-68
2023/03/03 07:23:20;;;;;;;;;;;17.30;60.60;;;;;;5039749;28;1268;-68
2023/03/03 07:25:45;;;;;;;;;;;17.30;60.60;;;;;;5074370;28;1012;-68
2023/03/03 07:28:23;;;;;;;;;;;17.30;60.60;;;;;;5038690;28;1906;-68
2023/03/03 07:30:49;;;;;;;;;;;17.30;60.60;;;;;;5042266;28;808;-67
2023/03/03 07:33:24;;;;;;;;;;;17.30;60.70;;;;;;5071011;28;1252;-69
2023/03/03 07:35:50;;;;;;;;;;;17.20;60.70;;;;;;5072217;28;1242;-69
2023/03/03 07:38:16;;;;;;;;;;;17.30;60.80;;;;;;5071704;28;1064;-69
2023/03/03 07:40:46;;;;;;;;;;;17.20;60.80;;;;;;5072594;28;870;-69
2023/03/03 07:43:35;;;;;;;;;;;17.20;60.80;;;;;;5071356;28;1200;-69
2023/03/03 07:46:09;;;;;;;;;;;17.20;61.50;;;;;;5033487;28;1354;-69
2023/03/03 07:48:35;;;;;;;;;;;17.30;60.90;;;;;;5043502;28;1910;-69
2023/03/03 07:51:04;;;;;;;;;;;17.30;60.90;;;;;;5040479;28;2103;-69
2023/03/03 07:53:33;;;;;;;;;;;17.20;60.90;;;;;;5076458;28;1394;-69
2023/03/03 07:55:59;;;;;;;;;;;17.20;60.90;;;;;;5073028;28;1222;-70
2023/03/03 07:58:30;;;;;;;;;;;17.20;60.90;;;;;;5040220;28;1044;-68
2023/03/03 08:01:08;;;;;;;;;;;17.20;60.90;;;;;;5038875;28;1265;-68
2023/03/03 08:03:34;;;;;;;;;;;17.20;60.80;;;;;;5040784;28;1058;-68
2023/03/03 08:06:00;;;;;;;;;;;17.20;60.80;;;;;;5069741;28;939;-68
2023/03/03 08:08:29;;;;;;;;;;;17.30;60.80;;;;;;5059050;28;1918;-67
2023/03/03 08:10:55;;;;;;;;;;;17.30;60.70;;;;;;5038191;28;2094;-68
2023/03/03 08:13:28;;;;;;;;;;;17.30;60.70;;;;;;5073421;28;1429;-67
2023/03/03 08:16:01;;;;;;;;;;;17.30;60.70;;;;;;5073173;28;1493;-68
2023/03/03 08:18:27;;;;;;;;;;;17.30;60.60;;;;;;5040435;28;2141;-68
2023/03/03 08:21:11;;;;;;;;;;;17.30;60.60;;;;;;5074533;28;1302;-69
2023/03/03 08:23:36;;;;;;;;;;;17.30;61.30;;;;;;5071455;28;1060;-69
2023/03/03 08:26:02;;;;;;;;;;;17.30;60.50;;;;;;5037741;28;1352;-67
2023/03/03 08:28:27;;;;;;;;;;;17.40;60.50;;;;;;5041076;28;1898;-68
2023/03/03 08:30:53;;;;;;;;;;;17.30;60.40;;;;;;5040397;28;1852;-69
2023/03/03 08:33:18;;;;;;;;;;;17.40;60.40;;;;;;5036920;28;2093;-68
2023/03/03 08:35:44;;;;;;;;;;;17.40;60.40;;;;;;5042592;28;1340;-68
2023/03/03 08:38:12;;;;;;;;;;;17.40;60.30;;;;;;5068408;28;1418;-68
2023/03/03 08:40:37;;;;;;;;;;;17.40;60.30;;;;;;5070885;28;1415;-68
2023/03/03 08:43:03;;;;;;;;;;;17.40;60.30;;;;;;5073676;28;2139;-68
2023/03/03 08:45:28;;;;;;;;;;;17.40;60.30;;;;;;5038276;28;863;-68
2023/03/03 08:47:54;;;;;;;;;;;17.40;60.30;;;;;;5072086;28;1912;-68
2023/03/03 08:50:19;;;;;;;;;;;17.40;60.20;;;;;;5036245;28;864;-68
2023/03/03 08:52:45;;;;;;;;;;;17.40;60.30;;;;;;5070820;28;1381;-67
2023/03/03 08:55:10;;;;;;;;;;;17.40;60.30;;;;;;5039868;28;1451;-68
2023/03/03 08:57:36;;;;;;;;;;;17.40;60.30;;;;;;5040845;28;1611;-68
2023/03/03 09:00:01;;;;;;;;;;;17.40;60.30;;;;;;5038514;28;1409;-67
2023/03/03 09:02:27;;;;;;;;;;;17.40;60.30;;;;;;5040543;28;1372;-67
2023/03/03 09:04:52;;;;;;;;;;;17.40;60.40;;;;;;5039157;28;1406;-67
2023/03/03 09:07:18;;;;;;;;;;;17.40;60.30;;;;;;5040790;28;1347;-67
2023/03/03 09:09:43;;;;;;;;;;;17.40;60.40;;;;;;5040382;28;1906;-67
2023/03/03 09:12:13;;;;;;;;;;;17.40;60.40;;;;;;5039733;28;1408;-69
2023/03/03 09:14:39;;;;;;;;;;;17.30;60.40;;;;;;5071912;28;915;-68
2023/03/03 09:17:06;;;;;;;;;;;17.30;60.40;;;;;;5036733;28;978;-69
2023/03/03 09:19:32;;;;;;;;;;;17.30;60.40;;;;;;5065134;28;1266;-69
2023/03/03 09:22:00;;;;;;;;;;;17.30;60.50;;;;;;5071114;28;1279;-69
2023/03/03 09:24:29;;;;;;;;;;;17.30;60.50;;;;;;5072308;28;863;-69
2023/03/03 09:26:57;;;;;;;;;;;17.30;60.50;;;;;;5038320;28;895;-69
2023/03/03 09:29:23;;;;;;;;;;;17.30;60.60;;;;;;5070569;28;1902;-69
2023/03/03 09:31:53;;;;;;;;;;;17.30;60.60;;;;;;5034737;28;1278;-69
2023/03/03 09:34:18;;;;;;;;;;;17.30;60.60;;;;;;5072881;28;831;-69
2023/03/03 09:36:44;;;;;;;;;;;17.30;60.60;;;;;;5037809;28;1479;-69
2023/03/03 09:39:17;;;;;;;;;;;17.30;60.70;;;;;;5039301;28;931;-69
2023/03/03 09:42:02;;;;;;;;;;;17.20;60.70;;;;;;5069596;28;1271;-69
2023/03/03 09:44:42;;;;;;;;;;;17.30;60.70;;;;;;5038162;28;943;-69
2023/03/03 09:47:26;;;;;;;;;;;17.20;60.70;;;;;;5038711;28;804;-69
2023/03/03 09:50:05;;;;;;;;;;;17.20;60.80;;;;;;5074067;28;1957;-69
2023/03/03 09:52:52;;;;;;;;;;;17.30;60.80;;;;;;5073950;28;1362;-69
2023/03/03 09:55:21;;;;;;;;;;;17.20;60.90;;;;;;5035989;28;1136;-69
2023/03/03 09:58:02;;;;;;;;;;;17.20;60.80;;;;;;5041188;28;899;-69
2023/03/03 10:00:33;;;;;;;;;;;17.20;60.90;;;;;;5059431;28;887;-68
2023/03/03 10:03:10;;;;;;;;;;;17.20;60.90;;;;;;5042697;28;1252;-68
2023/03/03 10:05:41;;;;;;;;;;;17.20;60.90;;;;;;5078006;28;1281;-68
2023/03/03 10:08:09;;;;;;;;;;;17.20;61.00;;;;;;5045005;28;1914;-68
2023/03/03 10:10:48;;;;;;;;;;;17.20;61.00;;;;;;5049621;28;1325;-68
2023/03/03 10:13:20;;;;;;;;;;;17.20;61.00;;;;;;5076838;28;1169;-68
2023/03/03 10:16:04;;;;;;;;;;;17.20;61.00;;;;;;5074880;28;887;-68
2023/03/03 10:18:36;;;;;;;;;;;17.10;61.00;;;;;;5042764;28;1042;-68
2023/03/03 10:21:01;;;;;;;;;;;17.20;61.10;;;;;;5046196;28;1267;-68
2023/03/03 10:23:29;;;;;;;;;;;17.20;61.10;;;;;;5041124;28;1241;-68
2023/03/03 10:26:07;;;;;;;;;;;17.20;61.10;;;;;;5041491;28;946;-69
2023/03/03 10:28:42;;;;;;;;;;;17.10;61.10;;;;;;5041841;28;1937;-69
2023/03/03 10:31:17;;;;;;;;;;;17.10;61.20;;;;;;5040153;28;1240;-69
2023/03/03 10:33:48;;;;;;;;;;;17.10;61.10;;;;;;5070577;28;1025;-69
2023/03/03 10:36:32;;;;;;;;;;;17.10;61.20;;;;;;5039651;28;882;-69
2023/03/03 10:39:17;;;;;;;;;;;17.10;61.20;;;;;;5041055;28;990;-69
2023/03/03 10:41:46;;;;;;;;;;;17.10;61.30;;;;;;5041831;28;1240;-69
2023/03/03 10:44:31;;;;;;;;;;;17.10;61.30;;;;;;5060069;28;830;-69
2023/03/03 10:47:03;;;;;;;;;;;17.10;61.30;;;;;;5073504;28;907;-68
2023/03/03 10:49:38;;;;;;;;;;;17.10;61.30;;;;;;5040628;28;1977;-69
2023/03/03 10:52:07;;;;;;;;;;;17.10;61.30;;;;;;5043048;28;1270;-69
2023/03/03 10:54:51;;;;;;;;;;;17.10;61.40;;;;;;5041170;28;821;-69
2023/03/03 10:57:23;;;;;;;;;;;17.10;61.40;;;;;;5039749;28;939;-69
2023/03/03 11:00:07;;;;;;;;;;;17.10;61.40;;;;;;5041640;28;859;-69
2023/03/03 11:02:37;;;;;;;;;;;17.10;61.30;;;;;;5042516;28;1260;-69
2023/03/03 11:05:18;;;;;;;;;;;17.10;61.30;;;;;;5071811;28;891;-69
2023/03/03 11:07:45;;;;;;;;;;;17.10;61.30;;;;;;5042846;28;882;-69
2023/03/03 11:10:23;;;;;;;;;;;17.10;61.20;;;;;;5072484;28;1046;-69
2023/03/03 11:13:07;;;;;;;;;;;17.20;61.20;;;;;;5072017;28;1286;-69
2023/03/03 11:15:53;;;;;;;;;;;17.20;61.10;;;;;;5042008;28;844;-69
2023/03/03 11:18:36;;;;;;;;;;;17.20;61.00;;;;;;5036825;28;1366;-69
2023/03/03 11:21:02;;;;;;;;;;;17.20;60.90;;;;;;5069503;28;1335;-69
2023/03/03 11:23:27;;;;;;;;;;;17.20;60.90;;;;;;5043205;28;1269;-69
2023/03/03 11:25:57;;;;;;;;;;;17.20;60.80;;;;;;5038394;28;1708;-69
2023/03/03 11:28:25;;;;;;;;;;;17.30;60.70;;;;;;5071297;28;1894;-69
2023/03/03 11:31:00;;;;;;;;;;;17.20;60.60;;;;;;5044276;28;1006;-69
2023/03/03 11:33:25;;;;;;;;;;;17.30;60.60;;;;;;5040882;28;938;-69
2023/03/03 11:35:57;;;;;;;;;;;17.30;60.60;;;;;;5043707;28;931;-69
2023/03/03 11:38:34;;;;;;;;;;;17.30;60.50;;;;;;5042428;28;1001;-69
2023/03/03 11:41:13;;;;;;;;;;;17.30;60.50;;;;;;5071347;28;1312;-69
2023/03/03 11:43:45;;;;;;;;;;;17.30;60.50;;;;;;5041054;28;967;-69
2023/03/03 11:46:15;;;;;;;;;;;17.30;60.40;;;;;;5044042;28;959;-69
2023/03/03 11:48:43;;;;;;;;;;;17.30;60.40;;;;;;5040588;28;1910;-69
2023/03/03 11:51:13;;;;;;;;;;;17.30;60.40;;;;;;5039930;28;1345;-69
2023/03/03 11:53:48;;;;;;;;;;;17.30;60.30;;;;;;5072832;28;830;-69
2023/03/03 11:56:16;;;;;;;;;;;17.30;60.30;;;;;;5042207;28;884;-69
2023/03/03 11:59:02;;;;;;;;;;;17.40;60.30;;;;;;5073776;28;882;-69
2023/03/03 12:01:33;;;;;;;;;;;17.40;60.30;;;;;;5018822;28;1323;-68
2023/03/03 12:04:02;;;;;;;;;;;17.30;60.20;;;;;;5035286;28;844;-69
2023/03/03 12:06:39;;;;;;;;;;;17.40;60.30;;;;;;5070158;28;970;-69
2023/03/03 12:09:17;;;;;;;;;;;17.40;60.30;;;;;;5074823;28;1905;-69
2023/03/03 12:11:46;;;;;;;;;;;17.40;60.20;;;;;;5039787;28;1287;-69
2023/03/03 12:14:30;;;;;;;;;;;17.40;60.20;;;;;;5072658;28;816;-69
2023/03/03 12:16:58;;;;;;;;;;;17.40;60.20;;;;;;5039385;28;959;-69
2023/03/03 12:19:23;;;;;;;;;;;17.40;60.20;;;;;;5039510;28;827;-69
2023/03/03 12:21:53;;;;;;;;;;;17.40;60.20;;;;;;5040038;28;1347;-69
2023/03/03 12:24:31;;;;;;;;;;;17.40;60.20;;;;;;5071073;28;962;-69
2023/03/03 12:27:09;;;;;;;;;;;17.40;60.20;;;;;;5071678;28;1367;-69
2023/03/03 12:29:40;;;;;;;;;;;17.40;60.20;;;;;;5071624;28;1894;-69
2023/03/03 12:32:14;;;;;;;;;;;17.40;60.20;;;;;;5041077;28;1342;-69
2023/03/03 12:34:45;;;;;;;;;;;17.40;60.20;;;;;;5072304;28;934;-69
2023/03/03 12:37:14;;;;;;;;;;;17.40;60.20;;;;;;5072082;28;1497;-69
2023/03/03 12:39:42;;;;;;;;;;;17.40;60.20;;;;;;5073026;28;919;-69
2023/03/03 12:42:20;;;;;;;;;;;17.40;60.20;;;;;;5071791;28;1301;-69
2023/03/03 12:44:47;;;;;;;;;;;17.40;60.20;;;;;;5039486;28;864;-69
2023/03/03 12:47:21;;;;;;;;;;;17.40;60.10;;;;;;5068706;28;809;-68
2023/03/03 12:50:05;;;;;;;;;;;17.40;60.20;;;;;;5075339;28;1945;-68
2023/03/03 12:52:33;;;;;;;;;;;17.40;60.20;;;;;;5041746;28;1267;-68
2023/03/03 12:55:01;;;;;;;;;;;17.40;60.20;;;;;;5037804;28;903;-68
2023/03/03 12:57:50;;;;;;;;;;;17.40;60.20;;;;;;5072185;28;812;-68
2023/03/03 13:00:18;;;;;;;;;;;17.40;60.20;;;;;;5017177;28;1304;-68
2023/03/03 13:02:55;;;;;;;;;;;17.40;60.20;;;;;;5070888;28;1357;-69
2023/03/03 13:05:26;;;;;;;;;;;17.40;60.20;;;;;;5072831;28;863;-69
2023/03/03 13:08:06;;;;;;;;;;;17.40;60.30;;;;;;5071901;28;1954;-69
2023/03/03 13:10:35;;;;;;;;;;;17.40;60.20;;;;;;5038322;28;862;-69
2023/03/03 13:13:02;;;;;;;;;;;17.30;60.20;;;;;;5040350;28;1431;-69
2023/03/03 13:15:40;;;;;;;;;;;17.30;60.20;;;;;;5069449;28;973;-69
2023/03/03 13:18:14;;;;;;;;;;;17.30;60.20;;;;;;5069130;28;1279;-69
2023/03/03 13:20:40;;;;;;;;;;;17.30;60.20;;;;;;5069234;28;820;-69
2023/03/03 13:23:05;;;;;;;;;;;17.40;60.30;;;;;;5035572;28;1274;-67
2023/03/03 13:25:34;;;;;;;;;;;17.30;60.30;;;;;;5040390;28;880;-68
2023/03/03 13:28:00;;;;;;;;;;;17.30;60.30;;;;;;5069963;28;1906;-68
2023/03/03 13:30:26;;;;;;;;;;;17.30;61.00;;;;;;5070961;28;911;-68
2023/03/03 13:33:13;;;;;;;;;;;17.30;60.30;;;;;;5040407;28;1283;-68
2023/03/03 13:35:38;;;;;;;;;;;17.30;60.30;;;;;;5072352;28;983;-68
2023/03/03 13:38:04;;;;;;;;;;;17.30;60.30;;;;;;5039620;28;908;-68
2023/03/03 13:40:37;;;;;;;;;;;17.40;60.40;;;;;;5071540;28;812;-68
2023/03/03 13:43:13;;;;;;;;;;;17.30;60.30;;;;;;5042877;28;1361;-68
2023/03/03 13:45:51;;;;;;;;;;;17.30;60.30;;;;;;5071018;28;1061;-68
2023/03/03 13:48:16;;;;;;;;;;;17.30;60.40;;;;;;5043088;28;1949;-69
2023/03/03 13:50:46;;;;;;;;;;;17.30;60.40;;;;;;5041696;28;993;-68
2023/03/03 13:53:17;;;;;;;;;;;17.30;60.40;;;;;;5072770;28;1209;-68
2023/03/03 13:56:01;;;;;;;;;;;17.30;60.40;;;;;;5039622;28;844;-68
2023/03/03 13:58:38;;;;;;;;;;;17.30;60.40;;;;;;5036872;28;914;-68
2023/03/03 14:01:19;;;;;;;;;;;17.30;60.40;;;;;;5073139;28;1339;-68
2023/03/03 14:03:45;;;;;;;;;;;17.30;60.30;;;;;;5041303;28;884;-68
2023/03/03 14:06:13;;;;;;;;;;;17.30;60.30;;;;;;5035863;28;907;-68
2023/03/03 14:08:57;;;;;;;;;;;17.30;60.30;;;;;;5032872;28;1902;-68
2023/03/03 14:11:31;;;;;;;;;;;17.30;60.30;;;;;;5039540;28;1369;-69
2023/03/03 14:14:03;;;;;;;;;;;17.40;60.40;;;;;;5035734;28;860;-69
2023/03/03 14:16:28;;;;;;;;;;;17.30;60.30;;;;;;5036363;28;814;-69
2023/03/03 14:18:55;;;;;;;;;;;17.40;60.40;;;;;;5040561;28;1608;-69
2023/03/03 14:21:25;;;;;;;;;;;17.30;60.30;;;;;;5066597;28;1279;-68
2023/03/03 14:23:58;;;;;;;;;;;17.30;60.30;;;;;;5039208;28;908;-69
2023/03/03 14:26:23;;;;;;;;;;;17.30;60.30;;;;;;5036077;28;863;-69
2023/03/03 14:28:50;;;;;;;;;;;17.30;60.30;;;;;;5069345;28;1945;-68
2023/03/03 14:31:20;;;;;;;;;;;17.30;60.30;;;;;;5069738;28;1258;-69
2023/03/03 14:33:55;;;;;;;;;;;17.30;60.30;;;;;;5073558;28;926;-69
2023/03/03 14:36:24;;;;;;;;;;;17.30;60.30;;;;;;5040957;28;848;-69
2023/03/03 14:38:50;;;;;;;;;;;17.30;60.30;;;;;;5073473;28;1369;-69
2023/03/03 14:41:17;;;;;;;;;;;17.40;60.40;;;;;;5071497;28;1691;-69
2023/03/03 14:43:45;;;;;;;;;;;17.30;60.30;;;;;;5043085;28;832;-68
2023/03/03 14:46:19;;;;;;;;;;;17.30;60.30;;;;;;5044856;28;919;-68
2023/03/03 14:48:55;;;;;;;;;;;17.30;60.30;;;;;;5039160;28;1899;-68